Langdale, Alabama
Current Conditions -  °F | °C
As of 4:55 PM on Wednesday 26 Nov 2014 (Local Time) from KLGC Reporting Station
Clear Clear  
Wind Chill: 50°   Ceiling: Unl
Heat Index: 50°   Visibility: 10mi
Dew Point: 32°   Wind: 0mph
Humidity: 50%   Direction: NA
Pressure: 30.09"   Gusts: NA
Location:  32.7858°N, 85.1946°W
Report Text: KLGC 262255Z AUTO 00000KT 10SM CLR 10/00 A3009 RMK AO2 T01000000
Loading
Personal Weather Stations






























Interactive Weather Map New forecast layout! Learn more

10-Day Weather Forecast

Advertisements
Track Severe Weather on mobile